sensor_id;sensor_type;location;lat;lon;timestamp;pressure;altitude;pressure_sealevel;temperature;humidity
23229;BME280;11783;50.350;6.576;2023-09-30T00:01:10;97126.34;;;12.63;100.00
23229;BME280;11783;50.350;6.576;2023-09-30T00:03:36;97124.03;;;12.66;100.00
23229;BME280;11783;50.350;6.576;2023-09-30T00:06:01;97124.03;;;12.66;100.00
23229;BME280;11783;50.350;6.576;2023-09-30T00:08:26;97129.94;;;12.68;100.00
23229;BME280;11783;50.350;6.576;2023-09-30T00:10:52;97134.47;;;12.68;100.00
23229;BME280;11783;50.350;6.576;2023-09-30T00:13:20;97135.75;;;12.65;100.00
23229;BME280;11783;50.350;6.576;2023-09-30T00:15:45;97140.28;;;12.65;100.00
23229;BME280;11783;50.350;6.576;2023-09-30T00:18:10;97141.09;;;12.65;100.00
23229;BME280;11783;50.350;6.576;2023-09-30T00:20:36;97148.03;;;12.66;100.00
23229;BME280;11783;50.350;6.576;2023-09-30T00:23:01;97156.38;;;12.70;100.00
23229;BME280;11783;50.350;6.576;2023-09-30T00:25:27;97153.94;;;12.68;100.00
23229;BME280;11783;50.350;6.576;2023-09-30T00:27:53;97162.75;;;12.69;100.00
23229;BME280;11783;50.350;6.576;2023-09-30T00:30:18;97161.94;;;12.68;100.00
23229;BME280;11783;50.350;6.576;2023-09-30T00:32:44;97155.56;;;12.58;100.00
23229;BME280;11783;50.350;6.576;2023-09-30T00:35:09;97150.25;;;12.46;100.00
23229;BME280;11783;50.350;6.576;2023-09-30T00:37:42;97159.75;;;12.54;100.00
23229;BME280;11783;50.350;6.576;2023-09-30T00:40:08;97155.34;;;12.59;100.00
23229;BME280;11783;50.350;6.576;2023-09-30T00:42:37;97150.81;;;12.60;100.00
23229;BME280;11783;50.350;6.576;2023-09-30T00:45:03;97144.66;;;12.59;100.00
23229;BME280;11783;50.350;6.576;2023-09-30T00:47:30;97148.16;;;12.60;100.00
23229;BME280;11783;50.350;6.576;2023-09-30T00:49:56;97150.22;;;12.58;100.00
23229;BME280;11783;50.350;6.576;2023-09-30T00:52:21;97150.47;;;12.56;100.00
23229;BME280;11783;50.350;6.576;2023-09-30T00:54:48;97156.03;;;12.55;100.00
23229;BME280;11783;50.350;6.576;2023-09-30T00:57:15;97160.31;;;12.56;100.00
23229;BME280;11783;50.350;6.576;2023-09-30T00:59:41;97152.56;;;12.54;100.00
23229;BME280;11783;50.350;6.576;2023-09-30T01:02:07;97149.78;;;12.49;100.00
23229;BME280;11783;50.350;6.576;2023-09-30T01:04:33;97146.53;;;12.47;100.00
23229;BME280;11783;50.350;6.576;2023-09-30T01:06:58;97147.59;;;12.46;100.00
23229;BME280;11783;50.350;6.576;2023-09-30T01:09:24;97138.75;;;12.46;100.00
23229;BME280;11783;50.350;6.576;2023-09-30T01:11:50;97142.94;;;12.41;100.00
23229;BME280;11783;50.350;6.576;2023-09-30T01:14:25;97144.31;;;12.44;100.00
23229;BME280;11783;50.350;6.576;2023-09-30T01:16:51;97154.53;;;12.35;100.00
23229;BME280;11783;50.350;6.576;2023-09-30T01:19:16;97159.63;;;12.37;100.00
23229;BME280;11783;50.350;6.576;2023-09-30T01:21:42;97152.34;;;12.32;100.00
23229;BME280;11783;50.350;6.576;2023-09-30T01:24:13;97151.19;;;12.28;100.00
23229;BME280;11783;50.350;6.576;2023-09-30T01:26:39;97153.47;;;12.25;100.00
23229;BME280;11783;50.350;6.576;2023-09-30T01:29:04;97153.94;;;12.22;100.00
23229;BME280;11783;50.350;6.576;2023-09-30T01:31:29;97137.59;;;12.18;100.00
23229;BME280;11783;50.350;6.576;2023-09-30T01:33:55;97144.78;;;12.18;100.00
23229;BME280;11783;50.350;6.576;2023-09-30T01:36:21;97153.47;;;12.13;100.00
23229;BME280;11783;50.350;6.576;2023-09-30T01:38:46;97181.75;;;12.14;100.00
23229;BME280;11783;50.350;6.576;2023-09-30T01:41:11;97175.25;;;12.10;100.00
23229;BME280;11783;50.350;6.576;2023-09-30T01:43:37;97178.59;;;12.05;100.00
23229;BME280;11783;50.350;6.576;2023-09-30T01:46:02;97171.41;;;12.06;100.00
23229;BME280;11783;50.350;6.576;2023-09-30T01:48:28;97183.34;;;12.03;100.00
23229;BME280;11783;50.350;6.576;2023-09-30T01:50:53;97184.38;;;12.02;100.00
23229;BME280;11783;50.350;6.576;2023-09-30T01:53:19;97186.13;;;11.97;100.00
23229;BME280;11783;50.350;6.576;2023-09-30T01:55:44;97173.38;;;11.99;100.00
23229;BME280;11783;50.350;6.576;2023-09-30T01:58:10;97171.75;;;11.98;100.00
23229;BME280;11783;50.350;6.576;2023-09-30T02:00:36;97182.41;;;11.98;100.00
23229;BME280;11783;50.350;6.576;2023-09-30T02:03:01;97180.19;;;11.95;100.00
23229;BME280;11783;50.350;6.576;2023-09-30T02:05:26;97168.75;;;11.94;100.00
23229;BME280;11783;50.350;6.576;2023-09-30T02:07:52;97164.31;;;11.88;100.00
23229;BME280;11783;50.350;6.576;2023-09-30T02:10:18;97168.81;;;11.88;100.00
23229;BME280;11783;50.350;6.576;2023-09-30T02:12:44;97161.88;;;11.87;100.00
23229;BME280;11783;50.350;6.576;2023-09-30T02:15:10;97155.50;;;11.88;100.00
23229;BME280;11783;50.350;6.576;2023-09-30T02:17:36;97142.06;;;11.82;100.00
23229;BME280;11783;50.350;6.576;2023-09-30T02:20:02;97132.69;;;11.80;100.00
23229;BME280;11783;50.350;6.576;2023-09-30T02:22:32;97141.72;;;11.79;100.00
23229;BME280;11783;50.350;6.576;2023-09-30T02:24:58;97152.38;;;11.79;100.00
23229;BME280;11783;50.350;6.576;2023-09-30T02:27:23;97160.34;;;11.79;100.00
23229;BME280;11783;50.350;6.576;2023-09-30T02:29:49;97164.03;;;11.78;100.00
23229;BME280;11783;50.350;6.576;2023-09-30T02:32:14;97150.34;;;11.74;100.00
23229;BME280;11783;50.350;6.576;2023-09-30T02:34:39;97156.72;;;11.73;100.00
23229;BME280;11783;50.350;6.576;2023-09-30T02:37:05;97165.84;;;11.66;100.00
23229;BME280;11783;50.350;6.576;2023-09-30T02:39:30;97158.94;;;11.46;100.00
23229;BME280;11783;50.350;6.576;2023-09-30T02:41:55;97178.38;;;11.47;100.00
23229;BME280;11783;50.350;6.576;2023-09-30T02:44:22;97186.34;;;11.35;100.00
23229;BME280;11783;50.350;6.576;2023-09-30T02:46:47;97174.72;;;11.30;100.00
23229;BME280;11783;50.350;6.576;2023-09-30T02:49:12;97175.38;;;11.25;100.00
23229;BME280;11783;50.350;6.576;2023-09-30T02:51:38;97166.91;;;11.16;100.00
23229;BME280;11783;50.350;6.576;2023-09-30T02:54:03;97157.50;;;11.14;100.00
23229;BME280;11783;50.350;6.576;2023-09-30T02:56:29;97162.69;;;11.09;100.00
23229;BME280;11783;50.350;6.576;2023-09-30T02:58:56;97166.69;;;11.00;100.00
23229;BME280;11783;50.350;6.576;2023-09-30T03:01:21;97184.50;;;10.99;100.00
23229;BME280;11783;50.350;6.576;2023-09-30T03:03:46;97175.53;;;10.93;100.00
23229;BME280;11783;50.350;6.576;2023-09-30T03:06:12;97177.16;;;10.95;100.00
23229;BME280;11783;50.350;6.576;2023-09-30T03:08:38;97164.25;;;10.98;100.00
23229;BME280;11783;50.350;6.576;2023-09-30T03:11:03;97181.84;;;10.99;100.00
23229;BME280;11783;50.350;6.576;2023-09-30T03:13:30;97182.34;;;10.71;100.00
23229;BME280;11783;50.350;6.576;2023-09-30T03:15:55;97191.34;;;10.70;100.00
23229;BME280;11783;50.350;6.576;2023-09-30T03:18:22;97189.34;;;10.66;100.00
23229;BME280;11783;50.350;6.576;2023-09-30T03:20:52;97186.97;;;10.57;100.00
23229;BME280;11783;50.350;6.576;2023-09-30T03:23:22;97168.53;;;10.63;100.00
23229;BME280;11783;50.350;6.576;2023-09-30T03:25:47;97167.19;;;10.72;100.00
23229;BME280;11783;50.350;6.576;2023-09-30T03:28:13;97175.50;;;10.82;100.00
23229;BME280;11783;50.350;6.576;2023-09-30T03:30:40;97176.44;;;10.87;100.00
23229;BME280;11783;50.350;6.576;2023-09-30T03:33:05;97174.13;;;10.73;100.00
23229;BME280;11783;50.350;6.576;2023-09-30T03:35:31;97172.44;;;10.78;100.00
23229;BME280;11783;50.350;6.576;2023-09-30T03:37:57;97188.34;;;10.85;100.00
23229;BME280;11783;50.350;6.576;2023-09-30T03:40:23;97194.03;;;10.88;100.00
23229;BME280;11783;50.350;6.576;2023-09-30T03:42:53;97194.84;;;10.89;100.00
23229;BME280;11783;50.350;6.576;2023-09-30T03:45:19;97189.50;;;10.89;100.00
23229;BME280;11783;50.350;6.576;2023-09-30T03:47:44;97186.50;;;10.85;100.00
23229;BME280;11783;50.350;6.576;2023-09-30T03:50:11;97182.56;;;10.88;100.00
23229;BME280;11783;50.350;6.576;2023-09-30T03:52:40;97184.41;;;10.87;100.00
23229;BME280;11783;50.350;6.576;2023-09-30T03:55:13;97184.41;;;10.87;100.00
23229;BME280;11783;50.350;6.576;2023-09-30T03:57:40;97182.66;;;10.81;100.00
23229;BME280;11783;50.350;6.576;2023-09-30T04:00:06;97191.81;;;10.85;100.00
23229;BME280;11783;50.350;6.576;2023-09-30T04:02:33;97189.97;;;10.86;100.00
23229;BME280;11783;50.350;6.576;2023-09-30T04:05:00;97167.56;;;10.93;100.00
23229;BME280;11783;50.350;6.576;2023-09-30T04:07:28;97171.50;;;10.91;100.00
23229;BME280;11783;50.350;6.576;2023-09-30T04:09:54;97162.03;;;10.95;100.00
23229;BME280;11783;50.350;6.576;2023-09-30T04:12:20;97165.94;;;10.92;100.00
23229;BME280;11783;50.350;6.576;2023-09-30T04:14:46;97158.31;;;10.96;100.00
23229;BME280;11783;50.350;6.576;2023-09-30T04:17:11;97148.31;;;10.98;100.00
23229;BME280;11783;50.350;6.576;2023-09-30T04:19:36;97157.97;;;10.92;100.00
23229;BME280;11783;50.350;6.576;2023-09-30T04:22:02;97167.13;;;10.78;100.00
23229;BME280;11783;50.350;6.576;2023-09-30T04:24:27;97170.63;;;10.79;100.00
23229;BME280;11783;50.350;6.576;2023-09-30T04:26:54;97168.59;;;10.74;100.00
23229;BME280;11783;50.350;6.576;2023-09-30T04:29:22;97177.03;;;10.71;100.00
23229;BME280;11783;50.350;6.576;2023-09-30T04:31:48;97180.84;;;10.75;100.00
23229;BME280;11783;50.350;6.576;2023-09-30T04:34:14;97185.59;;;10.73;100.00
23229;BME280;11783;50.350;6.576;2023-09-30T04:36:40;97180.94;;;10.69;100.00
23229;BME280;11783;50.350;6.576;2023-09-30T04:39:05;97175.22;;;10.47;100.00
23229;BME280;11783;50.350;6.576;2023-09-30T04:41:31;97178.78;;;10.59;100.00
23229;BME280;11783;50.350;6.576;2023-09-30T04:43:56;97185.63;;;10.48;100.00
23229;BME280;11783;50.350;6.576;2023-09-30T04:46:21;97193.53;;;10.55;100.00
23229;BME280;11783;50.350;6.576;2023-09-30T04:48:48;97194.19;;;10.50;100.00
23229;BME280;11783;50.350;6.576;2023-09-30T04:51:17;97200.63;;;10.43;100.00
23229;BME280;11783;50.350;6.576;2023-09-30T04:53:44;97195.44;;;10.48;100.00
23229;BME280;11783;50.350;6.576;2023-09-30T04:56:12;97195.25;;;10.24;100.00
23229;BME280;11783;50.350;6.576;2023-09-30T04:58:37;97190.53;;;10.26;100.00
23229;BME280;11783;50.350;6.576;2023-09-30T05:01:03;97192.53;;;10.31;100.00
23229;BME280;11783;50.350;6.576;2023-09-30T05:03:28;97194.97;;;10.32;100.00
23229;BME280;11783;50.350;6.576;2023-09-30T05:05:53;97205.75;;;10.38;100.00
23229;BME280;11783;50.350;6.576;2023-09-30T05:08:23;97210.63;;;10.41;100.00
23229;BME280;11783;50.350;6.576;2023-09-30T05:10:48;97214.50;;;10.45;100.00
23229;BME280;11783;50.350;6.576;2023-09-30T05:13:14;97194.41;;;10.49;100.00
23229;BME280;11783;50.350;6.576;2023-09-30T05:15:39;97200.19;;;10.46;100.00
23229;BME280;11783;50.350;6.576;2023-09-30T05:18:06;97206.03;;;10.29;100.00
23229;BME280;11783;50.350;6.576;2023-09-30T05:20:33;97207.59;;;10.37;100.00
23229;BME280;11783;50.350;6.576;2023-09-30T05:23:01;97209.34;;;10.50;100.00
23229;BME280;11783;50.350;6.576;2023-09-30T05:25:28;97205.19;;;10.54;100.00
23229;BME280;11783;50.350;6.576;2023-09-30T05:27:53;97204.94;;;10.62;100.00
23229;BME280;11783;50.350;6.576;2023-09-30T05:30:19;97207.75;;;10.67;100.00
23229;BME280;11783;50.350;6.576;2023-09-30T05:32:45;97210.31;;;10.74;100.00
23229;BME280;11783;50.350;6.576;2023-09-30T05:35:11;97225.63;;;10.78;100.00
23229;BME280;11783;50.350;6.576;2023-09-30T05:37:39;97222.16;;;10.78;100.00
23229;BME280;11783;50.350;6.576;2023-09-30T05:40:05;97221.13;;;10.79;100.00
23229;BME280;11783;50.350;6.576;2023-09-30T05:42:42;97217.84;;;10.77;100.00
23229;BME280;11783;50.350;6.576;2023-09-30T05:45:09;97211.59;;;10.71;100.00
23229;BME280;11783;50.350;6.576;2023-09-30T05:47:34;97219.19;;;10.68;100.00
23229;BME280;11783;50.350;6.576;2023-09-30T05:50:00;97233.59;;;10.60;100.00
23229;BME280;11783;50.350;6.576;2023-09-30T05:52:25;97239.72;;;10.60;100.00
23229;BME280;11783;50.350;6.576;2023-09-30T05:54:50;97244.03;;;10.55;100.00
23229;BME280;11783;50.350;6.576;2023-09-30T05:57:16;97240.72;;;10.59;100.00
23229;BME280;11783;50.350;6.576;2023-09-30T05:59:41;97230.94;;;10.60;100.00
23229;BME280;11783;50.350;6.576;2023-09-30T06:02:07;97226.47;;;10.54;100.00
23229;BME280;11783;50.350;6.576;2023-09-30T06:04:32;97224.84;;;10.53;100.00
23229;BME280;11783;50.350;6.576;2023-09-30T06:06:58;97239.38;;;10.50;100.00
23229;BME280;11783;50.350;6.576;2023-09-30T06:09:23;97240.84;;;10.46;100.00
23229;BME280;11783;50.350;6.576;2023-09-30T06:11:50;97245.56;;;10.44;100.00
23229;BME280;11783;50.350;6.576;2023-09-30T06:14:16;97243.94;;;10.43;100.00
23229;BME280;11783;50.350;6.576;2023-09-30T06:16:41;97253.34;;;10.39;100.00
23229;BME280;11783;50.350;6.576;2023-09-30T06:19:06;97250.13;;;10.37;100.00
23229;BME280;11783;50.350;6.576;2023-09-30T06:21:32;97261.19;;;10.34;100.00
23229;BME280;11783;50.350;6.576;2023-09-30T06:24:00;97260.38;;;10.34;100.00
23229;BME280;11783;50.350;6.576;2023-09-30T06:26:25;97254.22;;;10.33;100.00
23229;BME280;11783;50.350;6.576;2023-09-30T06:28:51;97240.72;;;10.35;100.00
23229;BME280;11783;50.350;6.576;2023-09-30T06:31:18;97236.00;;;10.37;100.00
23229;BME280;11783;50.350;6.576;2023-09-30T06:33:44;97224.56;;;10.36;100.00
23229;BME280;11783;50.350;6.576;2023-09-30T06:36:10;97228.47;;;10.34;100.00
23229;BME280;11783;50.350;6.576;2023-09-30T06:38:36;97227.00;;;10.38;100.00
23229;BME280;11783;50.350;6.576;2023-09-30T06:41:03;97232.72;;;10.41;100.00
23229;BME280;11783;50.350;6.576;2023-09-30T06:43:28;97223.91;;;10.41;100.00
23229;BME280;11783;50.350;6.576;2023-09-30T06:45:55;97238.13;;;10.28;100.00
23229;BME280;11783;50.350;6.576;2023-09-30T06:48:21;97243.38;;;10.03;100.00
23229;BME280;11783;50.350;6.576;2023-09-30T06:50:47;97259.06;;;10.11;100.00
23229;BME280;11783;50.350;6.576;2023-09-30T06:53:17;97258.63;;;10.14;100.00
23229;BME280;11783;50.350;6.576;2023-09-30T06:55:44;97263.41;;;10.06;100.00
23229;BME280;11783;50.350;6.576;2023-09-30T06:58:10;97262.81;;;9.97;100.00
23229;BME280;11783;50.350;6.576;2023-09-30T07:00:40;97266.28;;;9.97;100.00
23229;BME280;11783;50.350;6.576;2023-09-30T07:03:06;97266.13;;;9.92;100.00
23229;BME280;11783;50.350;6.576;2023-09-30T07:05:35;97247.91;;;9.96;100.00
23229;BME280;11783;50.350;6.576;2023-09-30T07:08:00;97244.81;;;10.06;100.00
23229;BME280;11783;50.350;6.576;2023-09-30T07:10:26;97247.41;;;9.81;100.00
23229;BME280;11783;50.350;6.576;2023-09-30T07:12:51;97254.81;;;9.65;100.00
23229;BME280;11783;50.350;6.576;2023-09-30T07:15:17;97253.53;;;9.81;100.00
23229;BME280;11783;50.350;6.576;2023-09-30T07:17:43;97263.81;;;9.64;100.00
23229;BME280;11783;50.350;6.576;2023-09-30T07:20:09;97277.50;;;9.68;100.00
23229;BME280;11783;50.350;6.576;2023-09-30T07:22:35;97266.88;;;9.68;100.00
23229;BME280;11783;50.350;6.576;2023-09-30T07:25:00;97268.47;;;9.76;100.00
23229;BME280;11783;50.350;6.576;2023-09-30T07:27:26;97270.47;;;9.87;100.00
23229;BME280;11783;50.350;6.576;2023-09-30T07:29:51;97270.56;;;10.05;100.00
23229;BME280;11783;50.350;6.576;2023-09-30T07:32:17;97266.16;;;10.17;100.00
23229;BME280;11783;50.350;6.576;2023-09-30T07:34:42;97259.88;;;10.12;100.00
23229;BME280;11783;50.350;6.576;2023-09-30T07:37:07;97259.50;;;10.08;100.00
23229;BME280;11783;50.350;6.576;2023-09-30T07:39:34;97269.75;;;10.05;100.00
23229;BME280;11783;50.350;6.576;2023-09-30T07:42:00;97273.59;;;10.09;100.00
23229;BME280;11783;50.350;6.576;2023-09-30T07:44:26;97272.50;;;10.16;100.00
23229;BME280;11783;50.350;6.576;2023-09-30T07:46:51;97267.38;;;10.21;100.00
23229;BME280;11783;50.350;6.576;2023-09-30T07:49:17;97278.44;;;10.25;100.00
23229;BME280;11783;50.350;6.576;2023-09-30T07:51:42;97279.84;;;10.27;100.00
23229;BME280;11783;50.350;6.576;2023-09-30T07:54:08;97289.38;;;10.35;100.00
23229;BME280;11783;50.350;6.576;2023-09-30T07:56:33;97290.97;;;10.43;100.00
23229;BME280;11783;50.350;6.576;2023-09-30T07:58:59;97284.66;;;10.37;100.00
23229;BME280;11783;50.350;6.576;2023-09-30T08:01:24;97285.66;;;10.43;100.00
23229;BME280;11783;50.350;6.576;2023-09-30T08:03:50;97299.91;;;10.48;100.00
23229;BME280;11783;50.350;6.576;2023-09-30T08:06:15;97299.47;;;10.51;100.00
23229;BME280;11783;50.350;6.576;2023-09-30T08:08:40;97309.69;;;10.54;100.00
23229;BME280;11783;50.350;6.576;2023-09-30T08:11:06;97312.91;;;10.63;100.00
23229;BME280;11783;50.350;6.576;2023-09-30T08:13:32;97314.47;;;10.71;100.00
23229;BME280;11783;50.350;6.576;2023-09-30T08:16:00;97312.25;;;10.68;100.00
23229;BME280;11783;50.350;6.576;2023-09-30T08:18:26;97302.13;;;10.76;100.00
23229;BME280;11783;50.350;6.576;2023-09-30T08:20:51;97309.41;;;10.87;100.00
23229;BME280;11783;50.350;6.576;2023-09-30T08:23:17;97309.69;;;10.79;100.00
23229;BME280;11783;50.350;6.576;2023-09-30T08:25:42;97299.38;;;10.89;100.00
23229;BME280;11783;50.350;6.576;2023-09-30T08:28:08;97292.47;;;11.07;100.00
23229;BME280;11783;50.350;6.576;2023-09-30T08:30:35;97287.28;;;11.12;100.00
23229;BME280;11783;50.350;6.576;2023-09-30T08:33:01;97289.81;;;11.25;100.00
23229;BME280;11783;50.350;6.576;2023-09-30T08:35:28;97293.75;;;11.41;100.00
23229;BME280;11783;50.350;6.576;2023-09-30T08:37:54;97303.63;;;11.52;100.00
23229;BME280;11783;50.350;6.576;2023-09-30T08:40:20;97302.53;;;11.60;100.00
23229;BME280;11783;50.350;6.576;2023-09-30T08:42:53;97304.44;;;11.71;100.00
23229;BME280;11783;50.350;6.576;2023-09-30T08:45:18;97314.28;;;11.70;100.00
23229;BME280;11783;50.350;6.576;2023-09-30T08:47:45;97315.84;;;11.78;100.00
23229;BME280;11783;50.350;6.576;2023-09-30T08:50:12;97302.59;;;11.90;100.00
23229;BME280;11783;50.350;6.576;2023-09-30T08:52:40;97300.78;;;12.02;100.00
23229;BME280;11783;50.350;6.576;2023-09-30T08:55:07;97297.97;;;12.15;100.00
23229;BME280;11783;50.350;6.576;2023-09-30T08:57:37;97300.69;;;12.38;100.00
23229;BME280;11783;50.350;6.576;2023-09-30T09:00:05;97298.38;;;12.42;100.00
23229;BME280;11783;50.350;6.576;2023-09-30T09:02:34;97297.03;;;12.09;100.00
23229;BME280;11783;50.350;6.576;2023-09-30T09:05:01;97299.53;;;12.34;100.00
23229;BME280;11783;50.350;6.576;2023-09-30T09:07:26;97290.72;;;12.46;100.00
23229;BME280;11783;50.350;6.576;2023-09-30T09:10:10;97295.53;;;12.79;100.00
23229;BME280;11783;50.350;6.576;2023-09-30T09:12:39;97291.75;;;13.21;100.00
23229;BME280;11783;50.350;6.576;2023-09-30T09:15:06;97291.72;;;13.45;100.00
23229;BME280;11783;50.350;6.576;2023-09-30T09:17:44;97289.56;;;13.70;100.00
23229;BME280;11783;50.350;6.576;2023-09-30T09:20:30;97283.56;;;13.91;100.00
23229;BME280;11783;50.350;6.576;2023-09-30T09:22:56;97281.06;;;14.13;100.00
23229;BME280;11783;50.350;6.576;2023-09-30T09:25:23;97286.00;;;14.21;100.00
23229;BME280;11783;50.350;6.576;2023-09-30T09:27:50;97288.94;;;14.20;100.00
23229;BME280;11783;50.350;6.576;2023-09-30T09:30:24;97287.69;;;14.11;100.00
23229;BME280;11783;50.350;6.576;2023-09-30T09:33:03;97289.53;;;14.39;100.00
23229;BME280;11783;50.350;6.576;2023-09-30T09:35:31;97297.28;;;14.69;100.00
23229;BME280;11783;50.350;6.576;2023-09-30T09:37:59;97299.13;;;14.85;100.00
23229;BME280;11783;50.350;6.576;2023-09-30T09:40:27;97291.59;;;14.99;100.00
23229;BME280;11783;50.350;6.576;2023-09-30T09:42:54;97292.22;;;15.06;100.00
23229;BME280;11783;50.350;6.576;2023-09-30T09:45:22;97284.53;;;15.09;100.00
23229;BME280;11783;50.350;6.576;2023-09-30T09:47:51;97289.81;;;15.04;100.00
23229;BME280;11783;50.350;6.576;2023-09-30T09:50:18;97289.47;;;15.18;100.00
23229;BME280;11783;50.350;6.576;2023-09-30T09:52:47;97284.81;;;15.30;100.00
23229;BME280;11783;50.350;6.576;2023-09-30T09:55:16;97284.28;;;15.50;100.00
23229;BME280;11783;50.350;6.576;2023-09-30T09:57:43;97279.16;;;15.65;100.00
23229;BME280;11783;50.350;6.576;2023-09-30T10:00:11;97288.50;;;15.62;100.00
23229;BME280;11783;50.350;6.576;2023-09-30T10:02:40;97291.34;;;15.78;100.00
23229;BME280;11783;50.350;6.576;2023-09-30T10:05:06;97286.72;;;15.95;100.00
23229;BME280;11783;50.350;6.576;2023-09-30T10:07:49;97280.28;;;16.18;100.00
23229;BME280;11783;50.350;6.576;2023-09-30T10:10:18;97282.09;;;16.39;100.00
23229;BME280;11783;50.350;6.576;2023-09-30T10:12:44;97279.06;;;16.30;100.00
23229;BME280;11783;50.350;6.576;2023-09-30T10:15:34;97271.97;;;16.46;96.94
23229;BME280;11783;50.350;6.576;2023-09-30T10:18:05;97269.50;;;16.40;94.23
23229;BME280;11783;50.350;6.576;2023-09-30T10:20:38;97281.84;;;16.68;91.73
23229;BME280;11783;50.350;6.576;2023-09-30T10:23:28;97290.59;;;16.58;94.97
23229;BME280;11783;50.350;6.576;2023-09-30T10:26:18;97296.63;;;16.70;92.85
23229;BME280;11783;50.350;6.576;2023-09-30T10:28:45;97299.66;;;16.79;96.55
23229;BME280;11783;50.350;6.576;2023-09-30T10:38:56;97308.41;;;16.69;86.61
23229;BME280;11783;50.350;6.576;2023-09-30T10:46:50;97307.63;;;17.06;90.84
23229;BME280;11783;50.350;6.576;2023-09-30T10:49:36;97304.94;;;17.01;91.25
23229;BME280;11783;50.350;6.576;2023-09-30T10:52:04;97299.72;;;16.89;86.38
23229;BME280;11783;50.350;6.576;2023-09-30T10:54:31;97312.16;;;16.68;79.93
23229;BME280;11783;50.350;6.576;2023-09-30T10:56:58;97294.34;;;16.89;86.77
23229;BME280;11783;50.350;6.576;2023-09-30T10:59:28;97305.34;;;16.87;83.10
23229;BME280;11783;50.350;6.576;2023-09-30T11:01:55;97301.41;;;16.95;86.21
23229;BME280;11783;50.350;6.576;2023-09-30T11:04:21;97291.00;;;17.09;83.86
23229;BME280;11783;50.350;6.576;2023-09-30T11:06:47;97295.66;;;17.18;83.05
23229;BME280;11783;50.350;6.576;2023-09-30T11:09:17;97299.13;;;17.19;82.61
23229;BME280;11783;50.350;6.576;2023-09-30T11:11:44;97290.81;;;17.20;78.82
23229;BME280;11783;50.350;6.576;2023-09-30T11:14:18;97303.28;;;17.37;82.87
23229;BME280;11783;50.350;6.576;2023-09-30T11:16:44;97303.25;;;17.32;82.12
23229;BME280;11783;50.350;6.576;2023-09-30T11:19:11;97303.53;;;17.35;85.54
23229;BME280;11783;50.350;6.576;2023-09-30T11:21:37;97298.53;;;17.54;84.19
23229;BME280;11783;50.350;6.576;2023-09-30T11:24:03;97293.44;;;17.58;82.41
23229;BME280;11783;50.350;6.576;2023-09-30T11:26:30;97288.31;;;17.51;78.84
23229;BME280;11783;50.350;6.576;2023-09-30T11:29:09;97282.41;;;17.49;71.29
23229;BME280;11783;50.350;6.576;2023-09-30T11:31:40;97276.06;;;17.28;72.18
23229;BME280;11783;50.350;6.576;2023-09-30T11:34:06;97280.53;;;17.49;80.01
23229;BME280;11783;50.350;6.576;2023-09-30T11:36:37;97268.72;;;17.55;79.66
23229;BME280;11783;50.350;6.576;2023-09-30T11:39:03;97267.75;;;17.72;76.84
23229;BME280;11783;50.350;6.576;2023-09-30T11:41:33;97267.75;;;17.82;75.04
23229;BME280;11783;50.350;6.576;2023-09-30T11:44:06;97269.97;;;18.00;71.49
23229;BME280;11783;50.350;6.576;2023-09-30T11:47:07;97259.19;;;17.85;70.14
23229;BME280;11783;50.350;6.576;2023-09-30T11:49:34;97258.41;;;18.00;75.17
23229;BME280;11783;50.350;6.576;2023-09-30T11:52:03;97274.00;;;18.03;71.62
23229;BME280;11783;50.350;6.576;2023-09-30T11:54:39;97268.88;;;17.86;67.05
23229;BME280;11783;50.350;6.576;2023-09-30T11:57:10;97267.00;;;17.92;72.57
23229;BME280;11783;50.350;6.576;2023-09-30T11:59:39;97265.13;;;17.92;71.34
23229;BME280;11783;50.350;6.576;2023-09-30T12:02:06;97264.06;;;17.98;71.60
23229;BME280;11783;50.350;6.576;2023-09-30T12:04:34;97267.28;;;17.90;67.40
23229;BME280;11783;50.350;6.576;2023-09-30T12:06:59;97255.66;;;17.84;72.42
23229;BME280;11783;50.350;6.576;2023-09-30T12:09:25;97261.63;;;17.87;72.73
23229;BME280;11783;50.350;6.576;2023-09-30T12:11:52;97260.34;;;18.14;71.31
23229;BME280;11783;50.350;6.576;2023-09-30T12:14:19;97264.41;;;18.22;72.98
23229;BME280;11783;50.350;6.576;2023-09-30T12:16:44;97266.81;;;18.24;72.58
23229;BME280;11783;50.350;6.576;2023-09-30T12:19:11;97261.13;;;18.10;75.19
23229;BME280;11783;50.350;6.576;2023-09-30T12:21:39;97248.47;;;18.00;72.87
23229;BME280;11783;50.350;6.576;2023-09-30T12:24:06;97250.38;;;18.20;74.92
23229;BME280;11783;50.350;6.576;2023-09-30T12:26:33;97247.97;;;18.39;71.54
23229;BME280;11783;50.350;6.576;2023-09-30T12:28:59;97252.06;;;18.62;73.64
23229;BME280;11783;50.350;6.576;2023-09-30T12:31:24;97258.53;;;18.76;70.93
23229;BME280;11783;50.350;6.576;2023-09-30T12:33:49;97250.72;;;18.90;70.27
23229;BME280;11783;50.350;6.576;2023-09-30T12:36:19;97235.34;;;18.95;67.56
23229;BME280;11783;50.350;6.576;2023-09-30T12:38:45;97231.03;;;18.94;63.99
23229;BME280;11783;50.350;6.576;2023-09-30T12:41:10;97239.94;;;19.00;67.38
23229;BME280;11783;50.350;6.576;2023-09-30T12:43:37;97239.13;;;18.99;68.46
23229;BME280;11783;50.350;6.576;2023-09-30T12:46:02;97212.94;;;19.20;69.11
23229;BME280;11783;50.350;6.576;2023-09-30T12:48:29;97222.41;;;19.02;62.18
23229;BME280;11783;50.350;6.576;2023-09-30T12:50:55;97226.66;;;19.29;64.78
23229;BME280;11783;50.350;6.576;2023-09-30T12:53:20;97222.88;;;19.35;68.10
23229;BME280;11783;50.350;6.576;2023-09-30T12:55:45;97236.66;;;19.18;65.88
23229;BME280;11783;50.350;6.576;2023-09-30T12:58:11;97221.53;;;19.27;63.44
23229;BME280;11783;50.350;6.576;2023-09-30T13:00:36;97219.63;;;19.38;66.08
23229;BME280;11783;50.350;6.576;2023-09-30T13:03:02;97219.63;;;19.38;63.80
23229;BME280;11783;50.350;6.576;2023-09-30T13:05:28;97209.16;;;19.21;61.66